createdAt,value
2022-07-31T00:00:21.213Z,95725.72
2022-07-31T00:02:49.012Z,95723.44
2022-07-31T00:05:16.711Z,95726.91
2022-07-31T00:07:44.471Z,95721.53
2022-07-31T00:10:13.555Z,95717.16
2022-07-31T00:12:41.348Z,95716.69
2022-07-31T00:15:10.997Z,95715.69
2022-07-31T00:17:39.452Z,95711.78
2022-07-31T00:20:08.674Z,95717.13
2022-07-31T00:22:36.490Z,95714.88
2022-07-31T00:25:04.638Z,95703.75
2022-07-31T00:27:34.293Z,95709.59
2022-07-31T00:30:01.954Z,95714.97
2022-07-31T00:32:29.667Z,95708.56
2022-07-31T00:34:57.532Z,95712.41
2022-07-31T00:37:25.357Z,95714.50
2022-07-31T00:39:54.358Z,95710.03
2022-07-31T00:42:23.636Z,95711.22
2022-07-31T00:44:53.628Z,95712.22
2022-07-31T00:47:23.793Z,95717.59
2022-07-31T00:49:53.418Z,95707.13
2022-07-31T00:52:21.484Z,95704.38
2022-07-31T00:54:49.190Z,95710.25
2022-07-31T00:57:16.927Z,95710.13
2022-07-31T00:59:45.110Z,95714.31
2022-07-31T01:02:14.565Z,95711.56
2022-07-31T01:04:44.592Z,95709.78
2022-07-31T01:07:13.655Z,95712.66
2022-07-31T01:09:41.511Z,95713.97
2022-07-31T01:12:16.413Z,95712.94
2022-07-31T01:14:48.837Z,95713.69
2022-07-31T01:17:37.370Z,95711.69
2022-07-31T01:20:07.856Z,95715.78
2022-07-31T01:22:53.682Z,95709.03
2022-07-31T01:25:34.106Z,95706.94
2022-07-31T01:28:12.936Z,95717.50
2022-07-31T01:30:52.973Z,95709.22
2022-07-31T01:33:33.928Z,95713.88
2022-07-31T01:36:09.171Z,95707.31
2022-07-31T01:38:45.881Z,95704.84
2022-07-31T01:41:16.846Z,95707.59
2022-07-31T01:43:49.062Z,95713.50
2022-07-31T01:46:21.392Z,95714.25
2022-07-31T01:48:50.190Z,95707.59
2022-07-31T01:51:19.803Z,95696.09
2022-07-31T01:53:49.405Z,95695.47
2022-07-31T01:56:18.784Z,95700.28
2022-07-31T01:58:50.725Z,95688.25
2022-07-31T02:01:26.655Z,95695.09
2022-07-31T02:03:56.874Z,95693.44
2022-07-31T02:06:28.830Z,95681.53
2022-07-31T02:08:59.781Z,95684.81
2022-07-31T02:11:27.530Z,95693.81
2022-07-31T02:13:58.368Z,95686.53
2022-07-31T02:16:28.623Z,95688.06
2022-07-31T02:18:59.397Z,95691.78
2022-07-31T02:21:27.417Z,95698.38
2022-07-31T02:23:56.687Z,95693.00
2022-07-31T02:26:28.476Z,95692.00
2022-07-31T02:28:56.860Z,95692.53
2022-07-31T02:31:25.477Z,95691.97
2022-07-31T02:33:57.618Z,95694.91
2022-07-31T02:36:25.832Z,95691.09
2022-07-31T02:38:55.017Z,95696.69
2022-07-31T02:41:23.626Z,95692.06
2022-07-31T02:43:51.940Z,95689.50
2022-07-31T02:46:21.139Z,95693.88
2022-07-31T02:48:51.961Z,95692.78
2022-07-31T02:51:21.310Z,95692.91
2022-07-31T02:53:49.154Z,95687.72
2022-07-31T02:56:17.555Z,95691.00
2022-07-31T02:58:45.533Z,95687.25
2022-07-31T03:01:14.410Z,95687.97
2022-07-31T03:03:43.020Z,95695.28
2022-07-31T03:06:10.779Z,95689.03
2022-07-31T03:08:40.129Z,95684.88
2022-07-31T03:11:07.883Z,95689.25
2022-07-31T03:13:40.841Z,95686.88
2022-07-31T03:16:11.840Z,95694.78
2022-07-31T03:18:41.207Z,95688.69
2022-07-31T03:21:10.815Z,95690.88
2022-07-31T03:23:41.729Z,95689.50
2022-07-31T03:26:10.007Z,95689.88
2022-07-31T03:28:37.982Z,95684.88
2022-07-31T03:31:07.784Z,95688.50
2022-07-31T03:33:36.297Z,95690.16
2022-07-31T03:36:04.454Z,95688.50
2022-07-31T03:38:39.676Z,95689.81
2022-07-31T03:41:14.444Z,95688.34
2022-07-31T03:43:47.834Z,95686.69
2022-07-31T03:46:17.236Z,95692.28
2022-07-31T03:48:45.589Z,95687.63
2022-07-31T03:51:14.090Z,95687.63
2022-07-31T03:53:43.481Z,95685.81
2022-07-31T03:56:13.115Z,95685.53
2022-07-31T03:58:41.087Z,95680.81
2022-07-31T04:01:10.630Z,95685.63
2022-07-31T04:03:40.396Z,95688.00
2022-07-31T04:06:09.089Z,95685.28
2022-07-31T04:08:36.811Z,95687.81
2022-07-31T04:11:04.675Z,95699.38
2022-07-31T04:13:33.771Z,95692.09
2022-07-31T04:16:04.444Z,95694.06
2022-07-31T04:18:32.078Z,95693.28
2022-07-31T04:20:59.923Z,95696.41
2022-07-31T04:23:32.169Z,95691.41
2022-07-31T04:26:03.661Z,95695.44
2022-07-31T04:28:33.593Z,95689.63
2022-07-31T04:31:01.253Z,95692.50
2022-07-31T04:33:29.292Z,95696.16
2022-07-31T04:35:58.695Z,95700.94
2022-07-31T04:38:26.392Z,95701.75
2022-07-31T04:40:54.172Z,95704.38
2022-07-31T04:43:21.854Z,95707.09
2022-07-31T04:45:50.949Z,95706.53
2022-07-31T04:48:18.815Z,95704.34
2022-07-31T04:50:47.006Z,95705.34
2022-07-31T04:53:14.691Z,95708.34
2022-07-31T04:56:03.868Z,95708.69
2022-07-31T04:58:31.696Z,95710.75
2022-07-31T05:01:00.788Z,95712.19
2022-07-31T05:03:28.896Z,95707.91
2022-07-31T05:05:56.636Z,95712.53
2022-07-31T05:08:24.470Z,95709.59
2022-07-31T05:11:09.866Z,95709.16
2022-07-31T05:13:37.499Z,95704.63
2022-07-31T05:16:12.290Z,95705.16
2022-07-31T05:18:39.954Z,95703.34
2022-07-31T05:21:07.715Z,95701.34
2022-07-31T05:23:35.463Z,95698.72
2022-07-31T05:26:05.131Z,95698.25
2022-07-31T05:28:33.139Z,95702.38
2022-07-31T05:31:01.008Z,95696.56
2022-07-31T05:33:30.127Z,95700.75
2022-07-31T05:35:58.350Z,95702.41
2022-07-31T05:38:26.420Z,95701.34
2022-07-31T05:40:54.524Z,95700.22
2022-07-31T05:43:22.245Z,95703.06
2022-07-31T05:45:50.034Z,95719.50
2022-07-31T05:48:18.316Z,95721.47
2022-07-31T05:50:49.005Z,95719.66
2022-07-31T05:53:17.326Z,95723.41
2022-07-31T05:55:47.049Z,95721.56
2022-07-31T05:58:16.934Z,95723.69
2022-07-31T06:00:46.051Z,95727.75
2022-07-31T06:03:14.014Z,95724.25
2022-07-31T06:05:41.979Z,95729.16
2022-07-31T06:08:11.681Z,95723.59
2022-07-31T06:10:39.460Z,95719.69
2022-07-31T06:13:07.285Z,95718.97
2022-07-31T06:15:36.777Z,95721.22
2022-07-31T06:18:04.988Z,95725.53
2022-07-31T06:20:32.867Z,95725.88
2022-07-31T06:23:02.228Z,95726.81
2022-07-31T06:25:49.118Z,95726.28
2022-07-31T06:28:17.768Z,95728.47
2022-07-31T06:30:45.441Z,95724.09
2022-07-31T06:33:15.880Z,95726.41
2022-07-31T06:36:00.803Z,95724.06
2022-07-31T06:38:30.798Z,95728.13
2022-07-31T06:40:59.829Z,95726.50
2022-07-31T06:43:29.990Z,95719.84
2022-07-31T06:45:57.623Z,95719.22
2022-07-31T06:48:25.365Z,95722.59
2022-07-31T06:51:14.433Z,95723.03
2022-07-31T06:53:43.881Z,95731.53
2022-07-31T06:56:13.050Z,95727.25
2022-07-31T06:58:40.789Z,95722.53
2022-07-31T07:01:08.501Z,95728.47
2022-07-31T07:03:36.665Z,95735.28
2022-07-31T07:06:04.474Z,95735.28
2022-07-31T07:08:32.277Z,95741.28
2022-07-31T07:11:00.030Z,95732.09
2022-07-31T07:13:45.668Z,95737.75
2022-07-31T07:16:14.906Z,95735.13
2022-07-31T07:18:43.053Z,95741.66
2022-07-31T07:21:11.054Z,95737.84
2022-07-31T07:23:38.774Z,95737.31
2022-07-31T07:26:07.147Z,95736.91
2022-07-31T07:28:36.651Z,95731.63
2022-07-31T07:31:05.688Z,95740.28
2022-07-31T07:33:39.738Z,95733.00
2022-07-31T07:36:23.193Z,95735.72
2022-07-31T07:38:53.428Z,95737.00
2022-07-31T07:41:21.550Z,95736.75
2022-07-31T07:43:52.400Z,95734.09
2022-07-31T07:46:24.002Z,95735.28
2022-07-31T07:48:52.503Z,95729.91
2022-07-31T07:51:21.010Z,95733.00
2022-07-31T07:53:49.236Z,95720.59
2022-07-31T07:56:17.657Z,95720.88
2022-07-31T07:58:45.546Z,95718.72
2022-07-31T08:01:15.143Z,95720.34
2022-07-31T08:03:50.949Z,95719.16
2022-07-31T08:06:23.415Z,95725.28
2022-07-31T08:08:51.398Z,95721.59
2022-07-31T08:11:19.410Z,95724.78
2022-07-31T08:13:51.016Z,95716.84
2022-07-31T08:16:20.965Z,95714.22
2022-07-31T08:18:48.882Z,95715.59
2022-07-31T08:21:16.853Z,95715.50
2022-07-31T08:23:44.626Z,95712.69
2022-07-31T08:26:13.948Z,95721.34
2022-07-31T08:28:50.175Z,95718.78
2022-07-31T08:31:20.637Z,95719.50
2022-07-31T08:33:48.486Z,95721.13
2022-07-31T08:36:17.535Z,95721.75
2022-07-31T08:38:45.690Z,95717.28
2022-07-31T08:41:20.107Z,95715.28
2022-07-31T08:44:01.607Z,95712.47
2022-07-31T08:46:34.100Z,95717.28
2022-07-31T08:49:05.835Z,95705.53
2022-07-31T08:51:50.948Z,95707.69
2022-07-31T08:54:20.470Z,95708.78
2022-07-31T08:56:52.433Z,95707.00
2022-07-31T08:59:20.891Z,95709.09
2022-07-31T09:01:54.051Z,95706.56
2022-07-31T09:04:23.486Z,95712.63
2022-07-31T09:06:51.685Z,95704.31
2022-07-31T09:09:20.850Z,95701.19
2022-07-31T09:11:49.609Z,95708.75
2022-07-31T09:14:29.737Z,95709.38
2022-07-31T09:16:59.375Z,95695.38
2022-07-31T09:19:53.513Z,95686.31
2022-07-31T09:22:28.712Z,95694.88
2022-07-31T09:25:08.707Z,95694.34
2022-07-31T09:27:44.297Z,95689.44
2022-07-31T09:30:13.016Z,95693.16
2022-07-31T09:32:43.224Z,95695.25
2022-07-31T09:35:12.794Z,95689.81
2022-07-31T09:37:41.374Z,95683.28
2022-07-31T09:40:10.385Z,95680.47
2022-07-31T09:42:45.566Z,95687.41
2022-07-31T09:45:21.919Z,95679.88
2022-07-31T09:48:04.631Z,95685.47
2022-07-31T09:50:32.365Z,95684.69
2022-07-31T09:53:01.646Z,95682.31
2022-07-31T09:55:30.090Z,95676.78
2022-07-31T09:57:59.568Z,95679.50
2022-07-31T10:00:28.740Z,95681.34
2022-07-31T10:02:58.697Z,95673.84
2022-07-31T10:05:28.202Z,95683.03
2022-07-31T10:08:00.039Z,95684.00
2022-07-31T10:10:41.990Z,95682.22
2022-07-31T10:13:22.450Z,95668.94
2022-07-31T10:15:57.993Z,95665.47
2022-07-31T10:18:36.049Z,95658.13
2022-07-31T10:21:08.592Z,95659.41
2022-07-31T10:23:49.220Z,95659.78
2022-07-31T10:26:17.486Z,95649.16
2022-07-31T10:28:45.301Z,95669.72
2022-07-31T10:31:13.613Z,95660.28
2022-07-31T10:33:45.059Z,95653.03
2022-07-31T10:36:17.833Z,95663.59
2022-07-31T10:38:59.732Z,95658.03
2022-07-31T10:41:38.957Z,95653.94
2022-07-31T10:44:12.600Z,95654.66
2022-07-31T10:46:40.826Z,95651.50
2022-07-31T10:49:09.923Z,95648.72
2022-07-31T10:51:47.561Z,95648.25
2022-07-31T10:54:15.677Z,95657.50
2022-07-31T10:56:47.522Z,95648.31
2022-07-31T10:59:15.401Z,95654.25
2022-07-31T11:01:53.072Z,95643.47
2022-07-31T11:04:29.116Z,95642.84
2022-07-31T11:06:56.999Z,95648.16
2022-07-31T11:09:25.599Z,95638.97
2022-07-31T11:11:54.016Z,95635.13
2022-07-31T11:14:32.857Z,95639.00
2022-07-31T11:17:00.522Z,95634.75
2022-07-31T11:19:41.250Z,95631.66
2022-07-31T11:22:32.246Z,95626.78
2022-07-31T11:25:00.907Z,95622.69
2022-07-31T11:27:32.751Z,95622.47
2022-07-31T11:30:10.648Z,95631.06
2022-07-31T11:32:40.630Z,95629.59
2022-07-31T11:35:10.145Z,95618.59
2022-07-31T11:37:56.295Z,95626.97
2022-07-31T11:40:27.592Z,95622.28
2022-07-31T11:43:27.209Z,95629.63
2022-07-31T11:45:48.915Z,95633.31
2022-07-31T11:48:19.190Z,95638.41
2022-07-31T11:50:50.102Z,95623.69
2022-07-31T11:53:18.604Z,95629.00
2022-07-31T11:55:54.186Z,95620.63
2022-07-31T11:58:23.382Z,95625.53
2022-07-31T12:00:52.748Z,95628.63
2022-07-31T12:03:22.875Z,95619.44
2022-07-31T12:05:53.332Z,95623.50
2022-07-31T12:08:21.747Z,95625.53
2022-07-31T12:10:49.898Z,95616.50
2022-07-31T12:13:19.134Z,95617.34
2022-07-31T12:16:00.416Z,95609.59
2022-07-31T12:18:29.723Z,95611.00
2022-07-31T12:21:00.305Z,95602.63
2022-07-31T12:23:41.468Z,95603.88
2022-07-31T12:26:13.329Z,95599.16
2022-07-31T12:28:41.196Z,95599.53
2022-07-31T12:31:09.134Z,95592.38
2022-07-31T12:33:45.598Z,95589.03
2022-07-31T12:36:16.631Z,95583.69
2022-07-31T12:38:48.498Z,95589.03
2022-07-31T12:41:17.554Z,95599.88
2022-07-31T12:43:51.168Z,95595.38
2022-07-31T12:46:35.292Z,95590.22
2022-07-31T12:49:03.026Z,95594.97
2022-07-31T12:51:45.371Z,95591.72
2022-07-31T12:54:15.751Z,95580.66
2022-07-31T12:56:43.638Z,95572.28
2022-07-31T12:59:12.142Z,95574.47
2022-07-31T13:01:40.505Z,95568.91
2022-07-31T13:04:18.840Z,95572.19
2022-07-31T13:06:52.146Z,95567.16
2022-07-31T13:09:20.127Z,95573.31
2022-07-31T13:11:48.457Z,95574.47
2022-07-31T13:14:16.841Z,95566.94
2022-07-31T13:16:44.582Z,95570.81
2022-07-31T13:19:12.904Z,95568.78
2022-07-31T13:21:49.463Z,95564.69
2022-07-31T13:24:20.191Z,95565.47
2022-07-31T13:26:48.445Z,95566.38
2022-07-31T13:29:16.669Z,95562.78
2022-07-31T13:31:44.759Z,95557.22
2022-07-31T13:34:12.801Z,95560.41
2022-07-31T13:36:45.386Z,95552.63
2022-07-31T13:39:29.007Z,95546.47
2022-07-31T13:41:58.297Z,95541.09
2022-07-31T13:44:39.444Z,95544.38
2022-07-31T13:47:07.637Z,95552.34
2022-07-31T13:49:37.581Z,95553.63
2022-07-31T13:52:06.241Z,95552.41
2022-07-31T13:54:35.576Z,95544.03
2022-07-31T13:57:06.014Z,95538.56
2022-07-31T13:59:34.103Z,95546.72
2022-07-31T14:02:04.696Z,95543.41
2022-07-31T14:04:38.208Z,95538.47
2022-07-31T14:07:07.528Z,95545.88
2022-07-31T14:09:36.039Z,95545.88
2022-07-31T14:12:06.107Z,95532.44
2022-07-31T14:14:37.212Z,95527.13
2022-07-31T14:17:04.856Z,95528.81
2022-07-31T14:19:43.778Z,95533.16
2022-07-31T14:22:13.404Z,95526.72
2022-07-31T14:24:41.373Z,95529.09
2022-07-31T14:27:12.383Z,95537.19
2022-07-31T14:29:40.082Z,95529.94
2022-07-31T14:32:08.610Z,95527.94
2022-07-31T14:34:36.503Z,95528.75
2022-07-31T14:37:04.678Z,95525.06
2022-07-31T14:39:32.718Z,95514.47
2022-07-31T14:42:00.435Z,95523.78
2022-07-31T14:44:29.418Z,95520.94
2022-07-31T14:46:57.111Z,95519.75
2022-07-31T14:49:24.964Z,95512.81
2022-07-31T14:52:12.606Z,95513.38
2022-07-31T14:54:40.544Z,95528.81
2022-07-31T14:57:08.278Z,95508.72
2022-07-31T14:59:37.333Z,95507.50
2022-07-31T15:02:05.949Z,95504.13
2022-07-31T15:04:34.237Z,95511.56
2022-07-31T15:07:33.276Z,95506.56
2022-07-31T15:09:49.893Z,95501.56
2022-07-31T15:12:19.299Z,95499.94
2022-07-31T15:14:48.391Z,95508.63
2022-07-31T15:17:16.190Z,95508.38
2022-07-31T15:19:43.968Z,95501.66
2022-07-31T15:22:17.142Z,95508.47
2022-07-31T15:24:48.354Z,95509.69
2022-07-31T15:27:17.169Z,95509.97
2022-07-31T15:30:05.484Z,95506.13
2022-07-31T15:32:33.987Z,95503.78
2022-07-31T15:35:01.858Z,95494.69
2022-07-31T15:37:30.132Z,95495.16
2022-07-31T15:40:01.904Z,95488.25
2022-07-31T15:42:30.951Z,95486.31
2022-07-31T15:44:58.687Z,95485.75
2022-07-31T15:47:26.502Z,95482.22
2022-07-31T15:49:55.684Z,95487.03
2022-07-31T15:52:23.540Z,95476.78
2022-07-31T15:54:52.566Z,95471.00
2022-07-31T15:57:20.873Z,95474.38
2022-07-31T15:59:49.111Z,95472.69
2022-07-31T16:02:17.323Z,95476.78
2022-07-31T16:04:53.317Z,95480.16
2022-07-31T16:08:30.767Z,95474.25
2022-07-31T16:10:16.519Z,95476.63
2022-07-31T16:12:46.294Z,95479.16
2022-07-31T16:15:14.925Z,95474.06
2022-07-31T16:17:44.116Z,95473.69
2022-07-31T16:20:25.452Z,95472.28
2022-07-31T16:22:57.963Z,95467.19
2022-07-31T16:25:26.477Z,95461.16
2022-07-31T16:27:54.291Z,95461.94
2022-07-31T16:30:22.815Z,95462.75
2022-07-31T16:32:51.495Z,95463.31
2022-07-31T16:35:19.393Z,95457.28
2022-07-31T16:37:50.903Z,95447.94
2022-07-31T16:40:29.150Z,95447.00
2022-07-31T16:43:01.748Z,95458.78
2022-07-31T16:45:30.760Z,95443.03
2022-07-31T16:47:58.752Z,95440.47
2022-07-31T16:50:26.924Z,95448.28
2022-07-31T16:52:55.360Z,95440.50
2022-07-31T16:55:55.419Z,95441.00
2022-07-31T16:58:15.158Z,95438.88
2022-07-31T17:00:43.853Z,95440.56
2022-07-31T17:03:59.007Z,95436.31
2022-07-31T17:06:00.043Z,95443.00
2022-07-31T17:08:30.075Z,95437.91
2022-07-31T17:10:59.216Z,95439.00
2022-07-31T17:13:27.265Z,95439.91
2022-07-31T17:15:55.140Z,95435.66
2022-07-31T17:18:25.462Z,95445.03
2022-07-31T17:20:56.019Z,95443.13
2022-07-31T17:23:43.629Z,95439.50
2022-07-31T17:26:22.276Z,95446.75
2022-07-31T17:28:51.009Z,95446.03
2022-07-31T17:31:30.314Z,95439.59
2022-07-31T17:34:01.378Z,95442.72
2022-07-31T17:36:31.457Z,95447.50
2022-07-31T17:39:07.781Z,95458.69
2022-07-31T17:41:41.029Z,95443.31
2022-07-31T17:44:08.986Z,95457.00
2022-07-31T17:46:48.285Z,95455.00
2022-07-31T17:49:20.461Z,95461.13
2022-07-31T17:52:05.268Z,95457.47
2022-07-31T17:54:40.268Z,95455.78
2022-07-31T17:57:36.563Z,95456.25
2022-07-31T18:00:07.930Z,95453.97
2022-07-31T18:02:35.901Z,95458.06
2022-07-31T18:05:03.898Z,95469.97
2022-07-31T18:07:31.764Z,95456.91
2022-07-31T18:09:59.653Z,95459.81
2022-07-31T18:12:27.618Z,95458.38
2022-07-31T18:14:56.651Z,95471.72
2022-07-31T18:17:24.396Z,95470.34
2022-07-31T18:19:52.204Z,95474.72
2022-07-31T18:22:19.945Z,95469.81
2022-07-31T18:24:47.706Z,95468.97
2022-07-31T18:27:15.927Z,95465.47
2022-07-31T18:29:47.340Z,95468.97
2022-07-31T18:32:25.848Z,95469.41
2022-07-31T18:34:53.593Z,95471.25
2022-07-31T18:37:21.342Z,95472.88
2022-07-31T18:39:50.518Z,95473.09
2022-07-31T18:42:18.481Z,95471.25
2022-07-31T18:44:46.610Z,95472.13
2022-07-31T18:47:14.450Z,95471.06
2022-07-31T18:50:59.214Z,95470.34
2022-07-31T18:52:31.378Z,95466.63
2022-07-31T18:54:59.161Z,95474.59
2022-07-31T18:57:26.930Z,95470.16
2022-07-31T18:59:54.613Z,95473.84
2022-07-31T19:02:24.213Z,95471.47
2022-07-31T19:04:56.710Z,95470.94
2022-07-31T19:07:25.636Z,95474.34
2022-07-31T19:09:53.328Z,95478.16
2022-07-31T19:12:21.168Z,95481.81
2022-07-31T19:18:36.610Z,95479.25
2022-07-31T19:21:19.388Z,95478.63
2022-07-31T19:23:54.325Z,95482.53
2022-07-31T19:26:22.252Z,95484.19
2022-07-31T19:28:50.087Z,95485.19
2022-07-31T19:31:18.302Z,95483.34
2022-07-31T19:33:46.513Z,95485.19
2022-07-31T19:36:16.340Z,95487.06
2022-07-31T19:38:55.702Z,95479.09
2022-07-31T19:41:24.936Z,95479.72
2022-07-31T19:43:52.832Z,95490.75
2022-07-31T19:46:23.693Z,95483.47
2022-07-31T19:48:51.619Z,95489.81
2022-07-31T19:51:20.905Z,95489.38
2022-07-31T19:53:55.111Z,95489.34
2022-07-31T19:56:22.841Z,95488.72
2022-07-31T19:58:51.399Z,95487.75
2022-07-31T20:01:21.955Z,95488.41
2022-07-31T20:03:50.162Z,95474.75
2022-07-31T20:06:20.276Z,95479.03
2022-07-31T20:08:50.187Z,95480.88
2022-07-31T20:11:18.252Z,95477.63
2022-07-31T20:13:46.075Z,95481.94
2022-07-31T20:16:15.173Z,95479.81
2022-07-31T20:19:09.809Z,95476.53
2022-07-31T20:21:44.005Z,95479.81
2022-07-31T20:24:13.231Z,95476.16
2022-07-31T20:49:19.325Z,95471.41
2022-07-31T20:52:24.055Z,95469.97
2022-07-31T20:55:19.584Z,95468.81
2022-07-31T20:57:48.688Z,95465.38
2022-07-31T21:00:17.021Z,95462.91
2022-07-31T21:02:46.490Z,95470.28
2022-07-31T21:05:26.908Z,95458.03
2022-07-31T21:08:01.393Z,95462.09
2022-07-31T21:10:30.216Z,95451.91
2022-07-31T21:12:59.569Z,95457.81
2022-07-31T21:15:41.752Z,95457.59
2022-07-31T21:18:12.881Z,95455.78
2022-07-31T21:20:49.827Z,95457.19
2022-07-31T21:23:25.276Z,95450.88
2022-07-31T21:25:54.397Z,95447.59
2022-07-31T21:28:24.730Z,95454.56
2022-07-31T21:30:53.770Z,95448.22
2022-07-31T21:34:15.715Z,95447.00
2022-07-31T22:00:33.339Z,95451.00
2022-07-31T22:03:04.028Z,95449.56
2022-07-31T22:05:55.578Z,95446.09
2022-07-31T22:08:23.430Z,95448.75
2022-07-31T22:10:52.778Z,95444.06
2022-07-31T22:13:23.136Z,95442.03
2022-07-31T22:15:58.601Z,95440.59
2022-07-31T22:18:29.122Z,95443.25
2022-07-31T22:20:57.501Z,95439.16
2022-07-31T22:23:25.526Z,95442.41
2022-07-31T22:26:02.667Z,95446.91
2022-07-31T22:28:30.836Z,95452.06
2022-07-31T22:31:03.788Z,95441.63
2022-07-31T22:33:31.809Z,95439.19
2022-07-31T22:36:02.689Z,95440.16
2022-07-31T22:38:31.614Z,95441.00
2022-07-31T22:41:00.144Z,95438.34
2022-07-31T22:44:10.352Z,95437.13
2022-07-31T22:46:17.370Z,95429.78
2022-07-31T22:48:48.180Z,95437.50
2022-07-31T22:51:16.213Z,95437.09
2022-07-31T22:53:44.449Z,95439.16
2022-07-31T22:56:16.807Z,95433.47
2022-07-31T22:58:44.633Z,95430.38
2022-07-31T23:01:12.666Z,95426.53
2022-07-31T23:03:41.813Z,95438.97
2022-07-31T23:06:31.249Z,95435.94
2022-07-31T23:08:57.697Z,95431.84
2022-07-31T23:11:25.681Z,95440.22
2022-07-31T23:13:54.025Z,95431.84
2022-07-31T23:16:21.846Z,95432.22
2022-07-31T23:18:51.518Z,95434.28
2022-07-31T23:21:22.902Z,95436.53
2022-07-31T23:23:51.848Z,95437.38
2022-07-31T23:26:20.148Z,95434.72
2022-07-31T23:28:48.065Z,95438.59
2022-07-31T23:31:19.199Z,95436.75
2022-07-31T23:33:48.100Z,95437.78
2022-07-31T23:36:17.907Z,95430.22
2022-07-31T23:38:49.655Z,95431.88
2022-07-31T23:41:38.225Z,95432.88
2022-07-31T23:44:05.517Z,95435.34
2022-07-31T23:46:38.937Z,95429.84
2022-07-31T23:49:08.880Z,95430.06
2022-07-31T23:51:38.296Z,95435.97
2022-07-31T23:54:06.263Z,95425.16
2022-07-31T23:56:36.633Z,95421.28
2022-07-31T23:59:04.702Z,95420.66
